Kemnay, Canada
Current Conditions -  °F | °C
As of 11:00 PM on Thursday 30 Oct 2014 (Local Time) from CYBR Reporting Station
Clear Clear  
Wind Chill: 18°   Ceiling: Unl
Heat Index: 18°   Visibility: 15mi
Dew Point: 12°   Wind: 3mph
Humidity: 79%   Direction: 70°ENE
Pressure: 30.59"   Gusts: NA
Location:  49.5°N, 100.13°W
Report Text: CYBR 310400Z 07003KT 15SM SKC M08/M11 A3059 RMK SLP388
Loading
Personal Weather Stations






























Interactive Weather Map
Tropical Storm Tracking
New forecast layout! Learn more

10-Day Weather Forecast

Advertisements
Track Severe Weather on mobile